Time;durP1;ratioP1;P1;durP2;ratioP2;P2;SDS_P1;SDS_P2;PMS_P1;PMS_P2;Temp;Humidity;BMP_temperature;BMP_pressure;BME280_temperature;BME280_humidity;BME280_pressure;Samples;Min_cycle;Max_cycle;Signal;HPM_P1;HPM_P2
2023/07/15 00:01:02;;;;;;;2.20;2.00;;;21.20;69.50;;;;;;5054386;28;20401;-70
2023/07/15 00:03:28;;;;;;;2.00;1.77;;;21.10;71.00;;;;;;5054490;28;20413;-70
2023/07/15 00:05:53;;;;;;;2.03;1.93;;;21.20;71.50;;;;;;5052752;28;20432;-68
2023/07/15 00:08:19;;;;;;;2.20;1.83;;;21.00;73.20;;;;;;5054114;28;20206;-69
2023/07/15 00:10:46;;;;;;;3.10;2.27;;;21.00;73.60;;;;;;5054213;28;20597;-68
2023/07/15 00:13:17;;;;;;;3.07;1.97;;;21.00;75.10;;;;;;5054147;28;20166;-68
2023/07/15 00:15:44;;;;;;;2.90;1.73;;;20.90;75.50;;;;;;5053807;28;20414;-69
2023/07/15 00:18:11;;;;;;;2.13;1.90;;;21.00;76.40;;;;;;5053721;28;20568;-68
2023/07/15 00:20:37;;;;;;;2.70;1.53;;;21.00;76.60;;;;;;5053940;28;20409;-68
2023/07/15 00:23:14;;;;;;;2.57;2.17;;;20.90;78.30;;;;;;5053868;28;20401;-70
2023/07/15 00:25:39;;;;;;;3.33;1.80;;;20.80;80.10;;;;;;5053465;28;20400;-70
2023/07/15 00:28:05;;;;;;;1.90;1.80;;;20.70;83.00;;;;;;5052380;28;20437;-70
2023/07/15 00:30:31;;;;;;;2.70;2.50;;;20.70;83.90;;;;;;5053816;28;20173;-68
2023/07/15 00:32:56;;;;;;;2.43;2.17;;;20.70;87.80;;;;;;5053758;28;20163;-69
2023/07/15 00:35:28;;;;;;;1.70;1.60;;;20.60;88.60;;;;;;5053459;28;20482;-67
2023/07/15 00:37:53;;;;;;;2.40;2.00;;;20.60;90.70;;;;;;5053679;28;20679;-68
2023/07/15 00:40:19;;;;;;;2.30;2.10;;;20.40;92.40;;;;;;5053683;28;20416;-68
2023/07/15 00:42:53;;;;;;;2.70;1.70;;;20.50;92.70;;;;;;5053473;28;20171;-68
2023/07/15 00:45:18;;;;;;;4.23;2.47;;;20.50;92.30;;;;;;5053256;28;20163;-67
2023/07/15 00:48:04;;;;;;;2.20;2.00;;;20.50;92.90;;;;;;5053205;28;20418;-68
2023/07/15 00:50:30;;;;;;;2.90;2.33;;;20.50;93.30;;;;;;5052163;28;20570;-68
2023/07/15 00:52:55;;;;;;;2.23;1.63;;;20.40;94.30;;;;;;5053381;28;20412;-68
2023/07/15 00:55:22;;;;;;;5.03;2.33;;;20.40;94.70;;;;;;5053064;28;20163;-68
2023/07/15 00:57:48;;;;;;;2.40;2.07;;;20.30;95.40;;;;;;5053131;28;20248;-68
2023/07/15 01:00:14;;;;;;;3.70;2.63;;;20.20;96.50;;;;;;5053231;28;20598;-68
2023/07/15 01:02:42;;;;;;;4.50;2.00;;;20.20;98.20;;;;;;5052798;28;20178;-67
2023/07/15 01:05:09;;;;;;;3.80;1.90;;;20.10;99.90;;;;;;5052800;28;20464;-67
2023/07/15 01:07:35;;;;;;;2.20;1.93;;;20.00;99.90;;;;;;5052844;28;20536;-70
2023/07/15 01:10:00;;;;;;;2.93;2.00;;;19.90;99.90;;;;;;5052781;28;20405;-69
2023/07/15 01:12:26;;;;;;;2.80;2.17;;;19.80;99.90;;;;;;5053308;28;20397;-70
2023/07/15 01:14:51;;;;;;;2.10;1.90;;;19.70;99.90;;;;;;5052748;28;20179;-70
2023/07/15 01:17:19;;;;;;;2.63;2.10;;;19.50;99.90;;;;;;5052495;28;20212;-70
2023/07/15 01:19:44;;;;;;;1.67;1.40;;;19.50;99.90;;;;;;5052826;28;20217;-68
2023/07/15 01:22:10;;;;;;;2.40;1.83;;;19.40;99.90;;;;;;5052825;28;20401;-68
2023/07/15 01:24:36;;;;;;;3.97;2.23;;;19.40;99.90;;;;;;5052692;28;20163;-67
2023/07/15 01:27:06;;;;;;;2.10;1.60;;;19.30;99.90;;;;;;5052594;28;20159;-68
2023/07/15 01:29:32;;;;;;;2.27;2.07;;;19.30;99.90;;;;;;5052698;28;20169;-70
2023/07/15 01:31:57;;;;;;;1.80;1.70;;;19.20;99.90;;;;;;5052571;28;20401;-70
2023/07/15 01:34:23;;;;;;;3.20;2.23;;;19.20;99.90;;;;;;5052571;28;20263;-71
2023/07/15 01:36:48;;;;;;;2.07;1.90;;;19.10;99.90;;;;;;5052281;28;20163;-70
2023/07/15 01:39:15;;;;;;;2.73;1.93;;;19.10;99.90;;;;;;5052441;28;20281;-69
2023/07/15 01:41:42;;;;;;;3.90;2.30;;;19.10;99.90;;;;;;5052336;28;20167;-70
2023/07/15 01:44:07;;;;;;;12.70;9.20;;;19.10;99.90;;;;;;5052388;28;20401;-70
2023/07/15 01:46:36;;;;;;;3.20;2.90;;;19.10;99.90;;;;;;5052034;28;20779;-69
2023/07/15 01:49:03;;;;;;;2.30;1.90;;;19.20;99.90;;;;;;5052298;28;20183;-69
2023/07/15 01:51:29;;;;;;;2.37;1.87;;;19.20;99.90;;;;;;5052220;28;20484;-70
2023/07/15 01:53:55;;;;;;;2.73;1.63;;;19.40;99.90;;;;;;5052215;28;20405;-70
2023/07/15 01:56:21;;;;;;;1.90;1.80;;;19.40;99.90;;;;;;5051951;28;21017;-70
2023/07/15 01:58:47;;;;;;;2.90;1.70;;;19.50;99.90;;;;;;5051897;28;20195;-70
2023/07/15 02:01:12;;;;;;;2.13;1.73;;;19.60;99.90;;;;;;5051714;28;20163;-69
2023/07/15 02:03:39;;;;;;;1.87;1.77;;;19.70;99.90;;;;;;5052111;28;20258;-70
2023/07/15 02:06:06;;;;;;;1.57;1.47;;;19.80;99.90;;;;;;5051698;28;20167;-68
2023/07/15 02:08:32;;;;;;;10.40;1.70;;;19.90;99.90;;;;;;5052014;28;20795;-68
2023/07/15 02:10:58;;;;;;;1.60;1.50;;;20.00;99.90;;;;;;5052057;28;20416;-67
2023/07/15 02:13:23;;;;;;;3.83;1.87;;;20.10;99.90;;;;;;5052002;28;20768;-68
2023/07/15 02:15:49;;;;;;;5.03;1.80;;;20.20;99.90;;;;;;5051667;28;20483;-69
2023/07/15 02:18:15;;;;;;;2.20;2.00;;;20.30;99.90;;;;;;5050512;28;20198;-68
2023/07/15 02:20:40;;;;;;;2.10;1.30;;;20.40;99.90;;;;;;5050659;28;20580;-68
2023/07/15 02:23:09;;;;;;;2.00;1.60;;;20.60;99.90;;;;;;5052203;28;20401;-68
2023/07/15 02:25:34;;;;;;;2.40;2.20;;;20.80;99.90;;;;;;5050503;28;20162;-68
2023/07/15 02:28:00;;;;;;;4.30;2.43;;;20.90;99.90;;;;;;5051811;28;20421;-68
2023/07/15 02:30:26;;;;;;;2.33;2.13;;;21.00;99.90;;;;;;5051918;28;20182;-68
2023/07/15 02:32:54;;;;;;;3.23;1.83;;;21.20;99.90;;;;;;5051666;28;20166;-68
2023/07/15 02:35:20;;;;;;;2.10;1.90;;;21.30;99.90;;;;;;5051297;28;20655;-67
2023/07/15 02:37:48;;;;;;;4.60;1.73;;;21.30;99.90;;;;;;5051736;28;20429;-68
2023/07/15 02:40:15;;;;;;;1.70;1.50;;;21.40;99.90;;;;;;5051865;28;20480;-68
2023/07/15 02:42:40;;;;;;;2.10;1.90;;;21.50;99.80;;;;;;5051777;28;20398;-68
2023/07/15 02:45:11;;;;;;;2.23;1.80;;;21.60;98.90;;;;;;5051535;28;20455;-68
2023/07/15 02:47:39;;;;;;;1.90;1.80;;;21.60;98.30;;;;;;5051650;28;20210;-68
2023/07/15 02:50:07;;;;;;;1.60;1.50;;;21.60;97.90;;;;;;5051706;28;20476;-68
2023/07/15 02:52:34;;;;;;;2.33;2.13;;;21.60;97.20;;;;;;5051667;28;20905;-67
2023/07/15 02:55:01;;;;;;;2.13;1.90;;;21.60;97.20;;;;;;5051269;28;20408;-68
2023/07/15 02:57:27;;;;;;;1.90;1.80;;;21.50;96.90;;;;;;5050288;28;20756;-67
2023/07/15 02:59:54;;;;;;;1.63;1.50;;;21.50;96.80;;;;;;5051166;28;20950;-68
2023/07/15 03:02:20;;;;;;;2.20;1.53;;;21.50;96.70;;;;;;5051044;28;20488;-68
2023/07/15 03:04:46;;;;;;;2.13;1.53;;;21.50;96.50;;;;;;5051486;28;20455;-68
2023/07/15 03:07:15;;;;;;;1.90;1.70;;;21.40;96.40;;;;;;5051198;28;20512;-68
2023/07/15 03:09:40;;;;;;;7.93;5.10;;;21.40;96.80;;;;;;5051274;28;20474;-68
2023/07/15 03:12:09;;;;;;;5.60;3.63;;;21.30;97.10;;;;;;5054242;28;20882;-68
2023/07/15 03:14:35;;;;;;;2.60;1.60;;;21.20;97.30;;;;;;5055273;28;20177;-68
2023/07/15 03:17:02;;;;;;;2.37;1.90;;;21.20;97.30;;;;;;5054869;28;20402;-67
2023/07/15 03:19:30;;;;;;;2.17;1.80;;;21.10;97.60;;;;;;5055049;28;20543;-68
2023/07/15 03:21:55;;;;;;;1.87;1.70;;;21.10;98.00;;;;;;5055078;28;20432;-68
2023/07/15 03:24:23;;;;;;;2.13;1.93;;;21.00;98.20;;;;;;5055075;28;20433;-68
2023/07/15 03:26:48;;;;;;;2.67;1.80;;;21.00;98.90;;;;;;5054780;28;20155;-68
2023/07/15 03:29:14;;;;;;;2.40;1.87;;;20.90;99.30;;;;;;5053606;28;20516;-69
2023/07/15 03:31:39;;;;;;;2.30;1.80;;;20.80;99.90;;;;;;5054935;28;20195;-68
2023/07/15 03:34:05;;;;;;;2.57;2.00;;;20.80;99.90;;;;;;5053872;28;20178;-69
2023/07/15 03:36:30;;;;;;;9.73;1.70;;;20.70;99.90;;;;;;5054581;28;20167;-69
2023/07/15 03:38:56;;;;;;;2.60;1.80;;;20.70;99.90;;;;;;5054643;28;20203;-69
2023/07/15 03:41:21;;;;;;;1.70;1.60;;;20.60;99.90;;;;;;5054754;28;20205;-69
2023/07/15 03:43:47;;;;;;;2.17;1.97;;;20.50;99.90;;;;;;5054649;28;20195;-68
2023/07/15 03:46:12;;;;;;;2.27;1.90;;;20.60;99.90;;;;;;5054233;28;20167;-68
2023/07/15 03:48:38;;;;;;;1.50;1.40;;;20.50;99.90;;;;;;5053401;28;20214;-69
2023/07/15 03:51:06;;;;;;;2.13;1.67;;;20.50;99.90;;;;;;5053161;28;20173;-68
2023/07/15 03:53:32;;;;;;;2.13;1.77;;;20.50;99.90;;;;;;5053136;28;20446;-69
2023/07/15 03:55:57;;;;;;;1.57;1.47;;;20.40;99.90;;;;;;5052896;28;20922;-68
2023/07/15 03:58:23;;;;;;;4.60;1.97;;;20.40;99.90;;;;;;5054195;28;20199;-69
2023/07/15 04:00:48;;;;;;;2.93;2.20;;;20.40;99.90;;;;;;5054005;28;20535;-69
2023/07/15 04:03:14;;;;;;;5.10;2.10;;;20.40;99.90;;;;;;5054178;28;20607;-69
2023/07/15 04:05:39;;;;;;;3.97;1.80;;;20.40;99.90;;;;;;5054088;28;20167;-69
2023/07/15 04:08:05;;;;;;;19.60;12.90;;;20.40;99.90;;;;;;5054052;28;20202;-69
2023/07/15 04:10:30;;;;;;;20.17;13.63;;;20.50;99.90;;;;;;5054181;28;20250;-69
2023/07/15 04:12:56;;;;;;;3.93;2.60;;;20.40;99.90;;;;;;5053943;28;20175;-69
2023/07/15 04:15:21;;;;;;;2.50;2.30;;;20.50;99.90;;;;;;5053700;28;20254;-68
2023/07/15 04:17:47;;;;;;;3.40;2.20;;;20.50;99.90;;;;;;5053771;28;20187;-69
2023/07/15 04:20:15;;;;;;;2.43;1.67;;;20.50;99.90;;;;;;5054228;28;20195;-68
2023/07/15 04:22:41;;;;;;;1.80;1.70;;;20.50;99.90;;;;;;5053423;28;20683;-69
2023/07/15 04:25:07;;;;;;;1.70;1.60;;;20.60;99.90;;;;;;5053636;28;20401;-68
2023/07/15 04:27:33;;;;;;;2.17;1.80;;;20.60;99.90;;;;;;5052471;28;20186;-68
2023/07/15 04:29:58;;;;;;;2.23;1.80;;;20.70;99.90;;;;;;5053824;28;20406;-68
2023/07/15 04:32:24;;;;;;;1.80;1.70;;;20.70;99.90;;;;;;5054002;28;20209;-69
2023/07/15 04:34:52;;;;;;;4.50;2.40;;;20.80;99.90;;;;;;5053672;28;20163;-68
2023/07/15 04:37:18;;;;;;;2.50;2.00;;;20.80;99.90;;;;;;5053006;28;20163;-68
2023/07/15 04:39:44;;;;;;;1.37;1.27;;;20.80;99.90;;;;;;5052888;28;20456;-69
2023/07/15 04:42:09;;;;;;;1.73;1.63;;;21.00;99.90;;;;;;5053502;28;20217;-68
2023/07/15 04:44:35;;;;;;;1.87;1.50;;;21.10;99.90;;;;;;5052324;28;20228;-68
2023/07/15 04:47:01;;;;;;;2.10;1.53;;;21.20;99.90;;;;;;5051356;28;20406;-69
2023/07/15 04:49:26;;;;;;;1.83;1.30;;;21.20;99.90;;;;;;5052146;28;20190;-69
2023/07/15 04:51:52;;;;;;;2.70;1.93;;;21.30;99.90;;;;;;5052903;28;20178;-70
2023/07/15 04:54:18;;;;;;;1.50;1.40;;;21.30;99.90;;;;;;5052971;28;20167;-70
2023/07/15 04:56:44;;;;;;;2.97;1.70;;;21.30;99.90;;;;;;5052377;28;20167;-69
2023/07/15 04:59:09;;;;;;;1.50;1.40;;;21.40;99.90;;;;;;5053024;28;20670;-69
2023/07/15 05:01:35;;;;;;;2.13;1.90;;;21.50;99.90;;;;;;5053113;28;20449;-69
2023/07/15 05:04:01;;;;;;;1.70;1.40;;;21.60;99.90;;;;;;5052921;28;20248;-71
2023/07/15 05:06:31;;;;;;;2.50;1.47;;;21.70;99.90;;;;;;5051628;28;20232;-69
2023/07/15 05:08:57;;;;;;;1.50;1.40;;;21.80;99.90;;;;;;5053100;28;20422;-70
2023/07/15 05:11:26;;;;;;;2.03;1.93;;;21.80;99.90;;;;;;5053116;28;20878;-69
2023/07/15 05:13:51;;;;;;;1.60;1.50;;;22.00;99.90;;;;;;5051707;28;20417;-68
2023/07/15 05:16:17;;;;;;;2.67;1.90;;;22.10;99.90;;;;;;5052661;28;20404;-70
2023/07/15 05:18:43;;;;;;;2.13;1.80;;;22.20;99.90;;;;;;5052773;28;20715;-70
2023/07/15 05:21:09;;;;;;;2.77;1.90;;;22.30;99.90;;;;;;5052878;28;20169;-69
2023/07/15 05:23:34;;;;;;;1.70;1.60;;;22.50;99.70;;;;;;5052641;28;20163;-71
2023/07/15 05:26:01;;;;;;;4.60;1.90;;;22.60;99.60;;;;;;5052364;28;20413;-70
2023/07/15 05:28:30;;;;;;;2.50;1.87;;;22.80;99.10;;;;;;5052479;28;20251;-69
2023/07/15 05:31:03;;;;;;;2.20;1.80;;;22.90;98.40;;;;;;5052570;28;20405;-70
2023/07/15 05:33:30;;;;;;;2.00;1.63;;;23.00;97.70;;;;;;5052675;28;20782;-69
2023/07/15 05:35:56;;;;;;;3.03;1.60;;;23.20;97.30;;;;;;5051527;28;20593;-69
2023/07/15 05:38:23;;;;;;;4.70;1.70;;;23.30;96.70;;;;;;5052343;28;20548;-69
2023/07/15 05:40:49;;;;;;;2.33;1.87;;;23.50;95.90;;;;;;5052316;28;20883;-70
2023/07/15 05:43:15;;;;;;;1.90;1.67;;;23.70;95.10;;;;;;5052691;28;20404;-69
2023/07/15 05:45:40;;;;;;;1.73;1.50;;;23.80;94.20;;;;;;5052227;28;20167;-69
2023/07/15 05:48:06;;;;;;;3.50;1.93;;;23.90;93.60;;;;;;5052264;28;20686;-70
2023/07/15 05:50:35;;;;;;;2.30;2.10;;;24.10;92.10;;;;;;5052357;28;20167;-70
2023/07/15 05:53:00;;;;;;;1.93;1.60;;;24.40;90.90;;;;;;5050983;28;20170;-71
2023/07/15 05:55:26;;;;;;;1.60;1.50;;;24.80;89.90;;;;;;5051959;28;20406;-71
2023/07/15 05:57:51;;;;;;;6.20;1.93;;;25.20;87.50;;;;;;5052058;28;20194;-71
2023/07/15 06:00:17;;;;;;;4.90;1.57;;;25.50;85.00;;;;;;5052235;28;20652;-71
2023/07/15 06:02:42;;;;;;;3.03;2.73;;;25.80;81.00;;;;;;5052258;28;20217;-71
2023/07/15 06:05:09;;;;;;;3.07;2.03;;;26.10;76.50;;;;;;5051936;28;20181;-72
2023/07/15 06:07:35;;;;;;;3.20;1.87;;;26.20;74.60;;;;;;5050595;28;20229;-72
2023/07/15 06:10:01;;;;;;;2.17;1.93;;;26.50;71.50;;;;;;5052079;28;20405;-72
2023/07/15 06:12:26;;;;;;;3.43;1.77;;;26.80;70.30;;;;;;5031751;28;20551;-72
2023/07/15 06:14:52;;;;;;;2.77;1.80;;;27.30;66.40;;;;;;5031166;28;20210;-72
2023/07/15 06:17:17;;;;;;;1.70;1.57;;;28.00;64.90;;;;;;5051024;28;20171;-72
2023/07/15 06:19:43;;;;;;;3.83;1.90;;;28.30;61.60;;;;;;5052587;28;20207;-72
2023/07/15 06:22:08;;;;;;;3.80;2.00;;;28.30;58.80;;;;;;5052520;28;20175;-71
2023/07/15 06:24:34;;;;;;;1.97;1.77;;;28.50;59.20;;;;;;5051774;28;20246;-72
2023/07/15 06:26:59;;;;;;;1.53;1.43;;;28.90;58.00;;;;;;5067604;28;20630;-73
2023/07/15 06:29:25;;;;;;;2.00;1.80;;;29.10;56.30;;;;;;5072113;28;20254;-73
2023/07/15 06:31:51;;;;;;;2.23;1.93;;;28.90;55.50;;;;;;5072003;28;20227;-73
2023/07/15 06:34:17;;;;;;;2.10;1.90;;;28.70;55.50;;;;;;5072098;28;20249;-72
2023/07/15 06:36:42;;;;;;;1.77;1.67;;;28.60;55.70;;;;;;5071923;28;20685;-72
2023/07/15 06:39:08;;;;;;;1.80;1.60;;;28.80;57.00;;;;;;5072047;28;20190;-73
2023/07/15 06:41:33;;;;;;;1.87;1.73;;;29.00;56.00;;;;;;5055693;28;20185;-73
2023/07/15 06:43:59;;;;;;;3.10;2.10;;;29.00;56.30;;;;;;5051964;28;20242;-73
2023/07/15 06:46:25;;;;;;;2.20;1.80;;;28.70;55.90;;;;;;5053948;28;20253;-72
2023/07/15 06:48:51;;;;;;;1.60;1.40;;;28.30;55.60;;;;;;5055879;28;20551;-73
2023/07/15 06:51:18;;;;;;;2.17;1.90;;;28.10;55.90;;;;;;5055611;28;20258;-73
2023/07/15 06:53:43;;;;;;;2.60;2.20;;;27.90;56.50;;;;;;5055851;28;20405;-72
2023/07/15 06:56:09;;;;;;;2.73;2.00;;;27.90;57.10;;;;;;5055639;28;20401;-73
2023/07/15 06:58:35;;;;;;;2.43;1.80;;;27.60;56.60;;;;;;5055642;28;20210;-73
2023/07/15 07:01:01;;;;;;;2.73;2.00;;;27.40;57.70;;;;;;5055964;28;20411;-72
2023/07/15 07:03:27;;;;;;;4.67;2.30;;;27.10;58.20;;;;;;5056023;28;20545;-72
2023/07/15 07:05:53;;;;;;;3.10;2.07;;;27.10;58.90;;;;;;5055290;28;20167;-72
2023/07/15 07:08:22;;;;;;;2.83;1.70;;;26.90;59.40;;;;;;5053991;28;20548;-73
2023/07/15 07:10:50;;;;;;;2.47;1.50;;;26.70;59.70;;;;;;5055376;28;20167;-72
2023/07/15 07:13:16;;;;;;;3.00;1.40;;;26.50;61.00;;;;;;5055523;28;20802;-72
2023/07/15 07:15:41;;;;;;;2.20;2.00;;;26.40;61.50;;;;;;5055228;28;20416;-72
2023/07/15 07:18:07;;;;;;;2.73;2.10;;;26.30;62.20;;;;;;5055342;28;20205;-72
2023/07/15 07:20:32;;;;;;;3.33;1.90;;;26.30;62.80;;;;;;5055292;28;20537;-72
2023/07/15 07:22:58;;;;;;;2.13;1.60;;;26.40;63.60;;;;;;5055268;28;20273;-72
2023/07/15 07:25:23;;;;;;;2.60;1.93;;;26.40;64.60;;;;;;5054894;28;20198;-72
2023/07/15 07:27:49;;;;;;;1.70;1.60;;;26.40;65.00;;;;;;5053850;28;20786;-72
2023/07/15 07:30:14;;;;;;;2.40;1.77;;;26.40;65.60;;;;;;5055227;28;20514;-72
2023/07/15 07:32:40;;;;;;;1.97;1.77;;;26.40;67.00;;;;;;5055325;28;20167;-71
2023/07/15 07:35:06;;;;;;;2.50;2.30;;;26.30;67.60;;;;;;5054930;28;20159;-72
2023/07/15 07:37:31;;;;;;;1.80;1.70;;;26.30;68.50;;;;;;5055074;28;20637;-72
2023/07/15 07:39:57;;;;;;;2.27;1.80;;;26.20;67.60;;;;;;5055295;28;20536;-72
2023/07/15 07:42:22;;;;;;;1.80;1.50;;;26.10;69.40;;;;;;5055117;28;20556;-74
2023/07/15 07:44:48;;;;;;;2.00;1.77;;;26.00;70.80;;;;;;5055447;28;20205;-73
2023/07/15 07:47:13;;;;;;;3.40;2.30;;;26.10;72.00;;;;;;5055084;28;20170;-73
2023/07/15 07:49:39;;;;;;;2.07;1.87;;;26.10;71.70;;;;;;5055006;28;20194;-72
2023/07/15 07:52:05;;;;;;;1.70;1.60;;;26.10;71.80;;;;;;5054943;28;20636;-72
2023/07/15 07:54:30;;;;;;;2.20;1.50;;;26.20;73.10;;;;;;5054787;28;20174;-73
2023/07/15 07:56:56;;;;;;;1.40;1.30;;;26.20;73.60;;;;;;5054118;28;20533;-72
2023/07/15 07:59:21;;;;;;;2.80;1.93;;;26.10;73.20;;;;;;5054153;28;20203;-72
2023/07/15 08:01:47;;;;;;;3.37;1.80;;;26.10;75.30;;;;;;5054572;28;20674;-72
2023/07/15 08:04:12;;;;;;;2.07;1.57;;;26.00;74.70;;;;;;5054446;28;20532;-71
2023/07/15 08:06:38;;;;;;;2.73;1.67;;;25.90;75.20;;;;;;5054342;28;20183;-71
2023/07/15 08:09:04;;;;;;;2.00;1.80;;;25.80;78.20;;;;;;5054477;28;20189;-72
2023/07/15 08:11:30;;;;;;;3.70;1.73;;;25.70;81.40;;;;;;5054529;28;20528;-72
2023/07/15 08:13:55;;;;;;;1.80;1.70;;;25.70;85.10;;;;;;5054675;28;20405;-73
2023/07/15 08:16:28;;;;;;;1.70;1.60;;;25.60;88.60;;;;;;5053862;28;20171;-71
2023/07/15 08:18:53;;;;;;;1.87;1.77;;;25.50;90.60;;;;;;5054071;28;20667;-72
2023/07/15 08:21:19;;;;;;;3.17;1.93;;;25.40;92.50;;;;;;5054097;28;20415;-72
2023/07/15 08:23:44;;;;;;;2.40;1.70;;;25.40;98.10;;;;;;5054027;28;20178;-70
2023/07/15 08:26:10;;;;;;;3.47;1.43;;;25.00;99.90;;;;;;5053811;28;20192;-70
2023/07/15 08:28:35;;;;;;;2.13;1.93;;;24.40;99.90;;;;;;5053879;28;20191;-71
2023/07/15 08:31:01;;;;;;;2.03;1.77;;;23.90;99.90;;;;;;5053910;28;20612;-71
2023/07/15 08:33:26;;;;;;;3.90;2.00;;;23.60;99.90;;;;;;5052538;28;20171;-71
2023/07/15 08:35:52;;;;;;;2.33;1.60;;;23.20;99.90;;;;;;5053479;28;20167;-71
2023/07/15 08:38:17;;;;;;;6.50;1.83;;;22.80;99.90;;;;;;5053483;28;20308;-72
2023/07/15 08:40:44;;;;;;;1.97;1.73;;;22.30;99.90;;;;;;5052610;28;20216;-71
2023/07/15 08:43:09;;;;;;;4.40;2.33;;;22.00;99.90;;;;;;5052562;28;20171;-72
2023/07/15 08:45:35;;;;;;;2.90;1.70;;;21.70;99.90;;;;;;5052321;28;20463;-71
2023/07/15 08:48:01;;;;;;;4.17;2.17;;;21.40;99.90;;;;;;5045180;28;20202;-72
2023/07/15 08:50:31;;;;;;;5.47;2.40;;;21.20;99.90;;;;;;5053031;28;20394;-71
2023/07/15 08:52:59;;;;;;;2.73;1.70;;;21.10;99.90;;;;;;5053456;28;20169;-71
2023/07/15 08:55:26;;;;;;;3.73;2.33;;;21.10;99.90;;;;;;5052853;28;20409;-72
2023/07/15 08:57:52;;;;;;;2.67;2.20;;;21.10;99.90;;;;;;5053044;28;20930;-72
2023/07/15 09:00:18;;;;;;;5.90;2.20;;;21.10;99.90;;;;;;5053108;28;20489;-71
2023/07/15 09:02:44;;;;;;;2.03;1.80;;;21.10;99.90;;;;;;5053109;28;20624;-72
2023/07/15 09:05:10;;;;;;;6.17;2.27;;;21.20;99.90;;;;;;5052585;28;20405;-72
2023/07/15 09:08:03;;;;;;;9.40;2.60;;;21.30;99.90;;;;;;5052966;28;20205;-72
2023/07/15 09:10:29;;;;;;;2.20;2.00;;;21.20;99.90;;;;;;5052637;28;20183;-72
2023/07/15 09:12:55;;;;;;;2.30;2.10;;;21.30;99.90;;;;;;5052919;28;20742;-72
2023/07/15 09:15:21;;;;;;;5.17;2.47;;;21.30;99.90;;;;;;5059488;28;20175;-72
2023/07/15 09:17:57;;;;;;;2.43;2.00;;;21.40;99.90;;;;;;5050557;28;20438;-72
2023/07/15 09:20:24;;;;;;;2.13;1.93;;;21.50;99.90;;;;;;5052792;28;20466;-72
2023/07/15 09:22:52;;;;;;;2.33;1.97;;;21.40;99.90;;;;;;5052678;28;20921;-72
2023/07/15 09:25:21;;;;;;;7.90;2.20;;;21.50;99.90;;;;;;5052173;28;20467;-71
2023/07/15 09:27:46;;;;;;;8.10;2.50;;;21.40;99.90;;;;;;5052340;28;20433;-72
2023/07/15 09:30:12;;;;;;;4.10;2.37;;;21.30;99.90;;;;;;5069451;28;20925;-72
2023/07/15 09:32:38;;;;;;;5.40;2.93;;;21.30;99.90;;;;;;5072559;28;20177;-72
2023/07/15 09:35:04;;;;;;;2.67;2.40;;;21.00;99.90;;;;;;5071944;28;20687;-72
2023/07/15 09:37:31;;;;;;;6.03;2.80;;;21.00;99.90;;;;;;5072150;28;20566;-72
2023/07/15 09:39:59;;;;;;;3.87;2.70;;;20.80;99.90;;;;;;5053980;28;20453;-72
2023/07/15 09:42:27;;;;;;;4.50;2.00;;;20.80;99.90;;;;;;5052375;28;20955;-72
2023/07/15 09:44:52;;;;;;;2.67;1.90;;;20.80;99.90;;;;;;5065406;28;20909;-72
2023/07/15 09:47:18;;;;;;;5.40;2.40;;;21.00;99.90;;;;;;5072355;28;20401;-72
2023/07/15 09:49:43;;;;;;;2.97;2.67;;;21.10;99.90;;;;;;5071766;28;20174;-72
2023/07/15 09:52:10;;;;;;;2.97;2.63;;;21.20;99.90;;;;;;5072270;28;20254;-72
2023/07/15 09:54:36;;;;;;;2.60;2.30;;;21.40;99.90;;;;;;5067241;28;20542;-72
2023/07/15 09:57:15;;;;;;;3.30;2.57;;;21.30;99.90;;;;;;5051729;28;20401;-72
2023/07/15 09:59:48;;;;;;;4.63;2.47;;;21.40;99.90;;;;;;5052145;28;20194;-71
2023/07/15 10:02:14;;;;;;;2.73;2.30;;;21.50;99.90;;;;;;5052232;28;20626;-72
2023/07/15 10:04:44;;;;;;;3.07;2.33;;;21.60;99.90;;;;;;5052089;28;20393;-72
2023/07/15 10:07:11;;;;;;;2.83;2.50;;;21.50;99.90;;;;;;5051852;28;20265;-72
2023/07/15 10:09:37;;;;;;;5.03;2.70;;;21.60;99.90;;;;;;5050844;28;20417;-71
2023/07/15 10:12:04;;;;;;;2.90;2.70;;;21.70;99.90;;;;;;5052181;28;20753;-71
2023/07/15 10:14:31;;;;;;;4.23;2.57;;;21.70;99.90;;;;;;5051828;28;20921;-71
2023/07/15 10:17:14;;;;;;;3.20;2.83;;;21.70;99.90;;;;;;5051667;28;20901;-72
2023/07/15 10:19:41;;;;;;;3.00;2.53;;;21.80;99.90;;;;;;5051921;28;20482;-71
2023/07/15 10:22:07;;;;;;;4.53;3.40;;;21.90;99.90;;;;;;5051370;28;20397;-72
2023/07/15 10:24:33;;;;;;;4.50;3.33;;;21.80;99.90;;;;;;5052684;28;20401;-75
2023/07/15 10:27:03;;;;;;;4.77;3.30;;;21.90;99.90;;;;;;5051796;28;20488;-71
2023/07/15 10:29:31;;;;;;;4.63;3.50;;;22.10;99.90;;;;;;5051822;28;20186;-73
2023/07/15 10:32:09;;;;;;;4.00;2.40;;;22.10;99.90;;;;;;5052117;28;20913;-71
2023/07/15 10:34:36;;;;;;;6.00;3.67;;;22.10;99.90;;;;;;5051696;28;20413;-73
2023/07/15 10:37:07;;;;;;;2.90;2.40;;;22.00;99.90;;;;;;5051628;28;20443;-72
2023/07/15 10:39:32;;;;;;;4.00;3.07;;;21.80;99.90;;;;;;5051664;28;20458;-73
2023/07/15 10:42:07;;;;;;;5.80;3.30;;;21.80;99.90;;;;;;5051811;28;20405;-71
2023/07/15 10:44:59;;;;;;;3.80;2.83;;;21.70;99.90;;;;;;5051833;28;20175;-71
2023/07/15 10:47:24;;;;;;;3.00;2.67;;;21.70;99.90;;;;;;5053441;28;20467;-74
2023/07/15 10:49:50;;;;;;;6.67;3.07;;;21.60;99.90;;;;;;5054097;28;20417;-74
2023/07/15 10:52:19;;;;;;;5.13;3.40;;;21.60;99.90;;;;;;5052820;28;20178;-73
2023/07/15 10:54:45;;;;;;;4.70;3.30;;;21.60;99.90;;;;;;5052687;28;20574;-71
2023/07/15 10:57:14;;;;;;;6.83;4.40;;;21.70;99.90;;;;;;5051374;28;20405;-74
2023/07/15 10:59:45;;;;;;;8.00;3.63;;;21.70;99.90;;;;;;5051609;28;20202;-73
2023/07/15 11:02:12;;;;;;;3.00;2.70;;;21.90;99.90;;;;;;5051308;28;20484;-73
2023/07/15 11:04:39;;;;;;;4.47;2.63;;;22.30;99.90;;;;;;5051366;28;20905;-74
2023/07/15 11:07:08;;;;;;;2.93;2.63;;;22.60;99.90;;;;;;5051096;28;20886;-74
2023/07/15 11:09:38;;;;;;;4.50;2.50;;;22.60;99.90;;;;;;5050169;28;20437;-75
2023/07/15 11:12:09;;;;;;;2.33;2.13;;;22.50;99.90;;;;;;5050178;28;20997;-75
2023/07/15 11:14:38;;;;;;;3.23;2.93;;;22.50;99.90;;;;;;5051441;28;20405;-75
2023/07/15 11:17:04;;;;;;;3.30;2.00;;;22.60;99.90;;;;;;5051150;28;20424;-74
2023/07/15 11:19:30;;;;;;;2.50;2.30;;;22.80;99.90;;;;;;5051015;28;20468;-74
2023/07/15 11:21:58;;;;;;;4.67;2.50;;;23.00;99.90;;;;;;5051353;28;20398;-74
2023/07/15 11:24:26;;;;;;;2.63;2.27;;;23.10;99.90;;;;;;5051330;28;20237;-75
2023/07/15 11:26:52;;;;;;;3.27;2.60;;;23.20;99.90;;;;;;5051285;28;20405;-74
2023/07/15 11:29:21;;;;;;;3.60;2.50;;;23.20;99.90;;;;;;5050009;28;20433;-75
2023/07/15 11:31:48;;;;;;;5.07;2.70;;;23.20;99.90;;;;;;5051215;28;20413;-74
2023/07/15 11:34:19;;;;;;;5.87;2.27;;;23.70;99.90;;;;;;5054325;28;20413;-74
2023/07/15 11:36:46;;;;;;;3.17;2.87;;;24.80;99.90;;;;;;5054574;28;20416;-75
2023/07/15 11:39:12;;;;;;;2.97;2.30;;;25.60;99.90;;;;;;5054787;28;20448;-75
2023/07/15 11:41:38;;;;;;;2.50;2.30;;;26.20;99.90;;;;;;5054833;28;20423;-75
2023/07/15 11:44:13;;;;;;;2.80;2.13;;;26.50;99.90;;;;;;5054531;28;20431;-75
2023/07/15 11:46:39;;;;;;;3.47;2.90;;;26.60;99.90;;;;;;5054619;28;20396;-75
2023/07/15 11:49:05;;;;;;;2.70;2.40;;;26.50;99.90;;;;;;5054505;28;20425;-75
2023/07/15 11:51:32;;;;;;;4.80;2.87;;;27.00;99.90;;;;;;5053366;28;20449;-73
2023/07/15 11:53:59;;;;;;;3.40;2.50;;;27.60;99.90;;;;;;5053600;28;20479;-73
2023/07/15 11:56:47;;;;;;;2.70;2.00;;;28.10;99.90;;;;;;5054237;28;20440;-73
2023/07/15 11:59:34;;;;;;;3.43;2.67;;;28.30;99.90;;;;;;5054406;28;20460;-73
2023/07/15 12:02:03;;;;;;;2.80;2.60;;;28.10;99.90;;;;;;5054406;28;20397;-73
2023/07/15 12:04:29;;;;;;;2.47;2.27;;;27.80;99.90;;;;;;5054404;28;20467;-73
2023/07/15 12:06:55;;;;;;;3.30;2.17;;;27.60;99.90;;;;;;5053920;28;20995;-73
2023/07/15 12:09:22;;;;;;;3.03;2.73;;;27.40;99.90;;;;;;5054272;28;20449;-73
2023/07/15 12:11:49;;;;;;;5.80;2.73;;;27.10;99.90;;;;;;5054494;28;20410;-73
2023/07/15 12:14:15;;;;;;;6.27;2.90;;;26.80;99.90;;;;;;5054311;28;20401;-74
2023/07/15 12:16:42;;;;;;;3.40;3.10;;;26.60;99.90;;;;;;5053808;28;20492;-74
2023/07/15 12:19:09;;;;;;;6.83;2.50;;;26.20;99.90;;;;;;5054009;28;20497;-74
2023/07/15 12:21:35;;;;;;;7.30;2.87;;;25.90;99.90;;;;;;5053145;28;20417;-73
2023/07/15 12:24:00;;;;;;;2.97;2.73;;;25.70;99.90;;;;;;5054153;28;20398;-73
2023/07/15 12:26:26;;;;;;;4.03;3.27;;;25.40;99.90;;;;;;5053764;28;20523;-73
2023/07/15 12:28:52;;;;;;;5.60;2.97;;;25.30;99.90;;;;;;5054037;28;20189;-74
2023/07/15 12:31:18;;;;;;;3.30;3.00;;;25.20;99.90;;;;;;5053981;28;20171;-74
2023/07/15 12:33:44;;;;;;;3.50;3.20;;;25.00;99.90;;;;;;5053978;28;20241;-73
2023/07/15 12:36:11;;;;;;;3.37;3.07;;;24.70;99.90;;;;;;5053513;28;20274;-73
2023/07/15 12:38:38;;;;;;;2.43;2.23;;;24.60;99.90;;;;;;5053440;28;20449;-73
2023/07/15 12:41:05;;;;;;;4.50;3.27;;;24.60;99.90;;;;;;5053586;28;20905;-74
2023/07/15 12:43:31;;;;;;;3.70;3.40;;;24.60;99.90;;;;;;5053184;28;20402;-73